Time;durP1;ratioP1;P1;durP2;ratioP2;P2;SDS_P1;SDS_P2;PMS_P1;PMS_P2;Temp;Humidity;BMP_temperature;BMP_pressure;BME280_temperature;BME280_humidity;BME280_pressure;Samples;Min_cycle;Max_cycle;Signal;HPM_P1;HPM_P2
2023/12/27 00:01:53;;;;;;;0.40;0.40;;;;;;;4.83;96.97;97154.50;4984663;28;20533;-65
2023/12/27 00:04:20;;;;;;;0.40;0.40;;;;;;;4.60;94.90;97143.81;5001081;28;20088;-65
2023/12/27 00:06:47;;;;;;;0.40;0.40;;;;;;;4.65;94.89;97168.31;4985794;28;20094;-64
2023/12/27 00:09:14;;;;;;;0.40;0.40;;;;;;;4.53;95.16;97143.53;4986024;28;20054;-64
2023/12/27 00:11:41;;;;;;;0.50;0.50;;;;;;;4.68;95.47;97149.59;4986458;28;20061;-64
2023/12/27 00:14:08;;;;;;;0.40;0.40;;;;;;;4.65;95.18;97151.84;5000808;28;20042;-65
2023/12/27 00:16:35;;;;;;;0.40;0.40;;;;;;;4.22;94.98;97104.59;4985831;28;20057;-66
2023/12/27 00:19:02;;;;;;;0.40;0.40;;;;;;;4.50;96.49;97155.13;4985925;28;20596;-64
2023/12/27 00:21:29;;;;;;;0.40;0.40;;;;;;;4.57;96.98;97144.47;4985811;28;20127;-64
2023/12/27 00:23:56;;;;;;;0.40;0.40;;;;;;;4.63;97.50;97137.66;4986410;28;20073;-64
2023/12/27 00:26:23;;;;;;;0.40;0.40;;;;;;;3.78;100.00;97033.03;5000890;28;20129;-64
2023/12/27 00:28:50;;;;;;;0.40;0.40;;;;;;;4.59;100.00;97142.22;4984458;28;20058;-66
2023/12/27 00:31:17;;;;;;;0.40;0.40;;;;;;;4.32;100.00;97142.63;4984132;28;20050;-64
2023/12/27 00:33:44;;;;;;;0.50;0.50;;;;;;;4.58;99.39;97157.03;4986002;28;20128;-64
2023/12/27 00:36:11;;;;;;;0.40;0.40;;;;;;;4.58;98.52;97168.00;4985704;28;20057;-64
2023/12/27 00:38:37;;;;;;;0.50;0.50;;;;;;;4.18;98.50;97111.88;4985557;28;20573;-64
2023/12/27 00:41:06;;;;;;;0.40;0.40;;;;;;;3.80;98.20;97053.47;4984425;28;20129;-64
2023/12/27 00:43:33;;;;;;;0.40;0.40;;;;;;;4.50;97.69;97166.09;4985577;28;20065;-64
2023/12/27 00:46:00;;;;;;;0.40;0.40;;;;;;;3.96;97.77;97101.16;4985326;28;20440;-66
2023/12/27 00:48:26;;;;;;;0.40;0.40;;;;;;;4.37;97.23;97142.47;4985659;28;20484;-64
2023/12/27 00:50:53;;;;;;;0.40;0.40;;;;;;;4.60;97.12;97182.22;4985604;28;20050;-65
2023/12/27 00:53:20;;;;;;;0.40;0.40;;;;;;;4.36;96.60;97132.59;4985193;28;20078;-65
2023/12/27 00:55:47;;;;;;;0.40;0.40;;;;;;;4.21;97.06;97113.97;4985450;28;20137;-64
2023/12/27 00:58:13;;;;;;;0.40;0.40;;;;;;;4.62;96.34;97176.41;4985280;28;20060;-64
2023/12/27 01:00:40;;;;;;;0.50;0.50;;;;;;;4.21;95.89;97113.97;4999051;28;20081;-64
2023/12/27 01:03:07;;;;;;;0.40;0.40;;;;;;;4.59;96.85;97180.63;4985344;28;20575;-63
2023/12/27 01:05:35;;;;;;;0.50;0.50;;;;;;;4.49;95.86;97191.94;4984051;28;20047;-65
2023/12/27 01:08:02;;;;;;;0.40;0.40;;;;;;;4.55;94.93;97181.59;4985127;28;20062;-64
2023/12/27 01:10:29;;;;;;;0.40;0.40;;;;;;;4.55;94.87;97179.63;4985473;28;20046;-63
2023/12/27 01:12:56;;;;;;;0.40;0.40;;;;;;;4.14;94.53;97113.66;4985088;28;20061;-64
2023/12/27 01:15:23;;;;;;;0.50;0.50;;;;;;;4.51;96.78;97175.97;4985474;28;20544;-64
2023/12/27 01:17:50;;;;;;;0.45;0.45;;;;;;;4.37;97.76;97136.97;4985119;28;20053;-63
2023/12/27 01:20:17;;;;;;;0.45;0.45;;;;;;;4.20;99.11;97134.28;4985128;28;20512;-63
2023/12/27 01:22:46;;;;;;;0.40;0.40;;;;;;;3.71;100.00;97173.22;4984977;28;20093;-64
2023/12/27 01:25:13;;;;;;;0.40;0.40;;;;;;;3.75;99.86;97165.97;4983672;28;20061;-64
2023/12/27 01:27:40;;;;;;;0.40;0.40;;;;;;;3.56;99.06;97135.34;4983438;28;20058;-63
2023/12/27 01:30:07;;;;;;;0.40;0.40;;;;;;;3.72;97.67;97172.09;4984417;28;20042;-63
2023/12/27 01:32:34;;;;;;;0.47;0.47;;;;;;;3.79;97.24;97177.91;4984439;28;20145;-64
2023/12/27 01:35:01;;;;;;;0.40;0.40;;;;;;;3.82;97.40;97190.94;4999998;28;20428;-64
2023/12/27 01:37:28;;;;;;;0.40;0.40;;;;;;;3.75;98.42;97193.34;4984636;28;20125;-64
2023/12/27 01:39:55;;;;;;;0.40;0.40;;;;;;;3.11;96.37;97068.41;4985005;28;20414;-65
2023/12/27 01:42:22;;;;;;;0.40;0.40;;;;;;;3.90;95.75;97205.75;4984755;28;20061;-64
2023/12/27 01:44:49;;;;;;;0.40;0.40;;;;;;;3.39;96.30;97140.84;4984685;28;20060;-65
2023/12/27 01:47:16;;;;;;;0.40;0.40;;;;;;;3.73;97.92;97195.59;4999671;28;20057;-64
2023/12/27 01:49:43;;;;;;;0.40;0.40;;;;;;;3.41;98.56;97146.81;4999851;28;20078;-64
2023/12/27 01:52:10;;;;;;;0.40;0.40;;;;;;;3.85;98.69;97192.22;4984834;28;20440;-64
2023/12/27 01:54:38;;;;;;;0.40;0.40;;;;;;;3.58;98.59;97155.03;4983627;28;20046;-65
2023/12/27 01:57:05;;;;;;;0.40;0.40;;;;;;;3.89;99.30;97210.44;4999651;28;20444;-64
2023/12/27 01:59:32;;;;;;;0.40;0.40;;;;;;;3.91;100.00;97197.22;4983249;28;20112;-64
2023/12/27 02:01:59;;;;;;;0.40;0.40;;;;;;;3.58;100.00;97141.31;4999573;28;20050;-64
2023/12/27 02:04:27;;;;;;;0.40;0.40;;;;;;;3.93;99.48;97194.97;4984532;28;20046;-64
2023/12/27 02:06:54;;;;;;;0.50;0.50;;;;;;;3.95;99.30;97200.91;4984146;28;20059;-64
2023/12/27 02:09:22;;;;;;;0.40;0.40;;;;;;;3.56;99.61;97135.34;4984393;28;20069;-64
2023/12/27 02:11:49;;;;;;;0.40;0.40;;;;;;;3.84;100.00;97199.63;4987454;28;20065;-63
2023/12/27 02:14:15;;;;;;;0.40;0.40;;;;;;;3.71;100.00;97192.41;4988492;28;20544;-64
2023/12/27 02:16:42;;;;;;;0.40;0.40;;;;;;;3.75;100.00;97187.06;4988000;28;20433;-64
2023/12/27 02:19:15;;;;;;;0.40;0.40;;;;;;;3.29;100.00;97127.47;4988288;28;20072;-64
2023/12/27 02:21:43;;;;;;;0.40;0.40;;;;;;;3.68;100.00;97182.09;4988143;28;20551;-63
2023/12/27 02:24:14;;;;;;;0.38;0.38;;;;;;;3.34;100.00;97132.78;4988131;28;20054;-63
2023/12/27 02:26:41;;;;;;;0.40;0.40;;;;;;;3.54;100.00;97129.38;4986429;28;20093;-65
2023/12/27 02:29:08;;;;;;;0.40;0.40;;;;;;;4.21;100.00;97204.44;4988076;28;20058;-63
2023/12/27 02:31:35;;;;;;;0.40;0.40;;;;;;;4.23;100.00;97207.66;4987935;28;20129;-63
2023/12/27 02:34:01;;;;;;;0.40;0.40;;;;;;;4.29;100.00;97203.59;4987715;28;20141;-64
2023/12/27 02:36:29;;;;;;;0.40;0.40;;;;;;;4.32;100.00;97207.63;4987928;28;20104;-64
2023/12/27 02:38:55;;;;;;;0.40;0.40;;;;;;;4.16;100.00;97188.16;4986696;28;20090;-64
2023/12/27 02:41:22;;;;;;;0.40;0.40;;;;;;;4.07;100.00;97201.06;5002387;28;20089;-63
2023/12/27 02:43:49;;;;;;;0.40;0.40;;;;;;;3.23;100.00;97210.88;4987745;28;20133;-64
2023/12/27 02:46:16;;;;;;;0.30;0.30;;;;;;;2.92;100.00;97221.09;4987714;28;20065;-65
2023/12/27 02:48:42;;;;;;;0.40;0.40;;;;;;;3.08;100.00;97211.31;5002841;28;20053;-64
2023/12/27 02:51:10;;;;;;;0.40;0.40;;;;;;;3.25;100.00;97222.31;5002331;28;20062;-64
2023/12/27 02:53:36;;;;;;;0.40;0.40;;;;;;;3.17;100.00;97165.63;4986477;28;20124;-64
2023/12/27 02:56:03;;;;;;;0.40;0.40;;;;;;;2.85;100.00;97081.22;4987696;28;20544;-64
2023/12/27 02:58:30;;;;;;;0.38;0.38;;;;;;;3.75;100.00;97204.31;4987710;28;20505;-64
2023/12/27 03:00:57;;;;;;;0.40;0.40;;;;;;;3.29;100.00;97206.84;4987232;28;20086;-64
2023/12/27 03:03:24;;;;;;;0.40;0.40;;;;;;;3.94;100.00;97223.97;4987197;28;20047;-64
2023/12/27 03:05:51;;;;;;;0.40;0.40;;;;;;;3.67;100.00;97180.47;4972857;28;20439;-66
2023/12/27 03:08:17;;;;;;;0.43;0.43;;;;;;;3.77;100.00;97218.50;4967504;28;20065;-64
2023/12/27 03:10:44;;;;;;;0.40;0.40;;;;;;;3.51;100.00;97187.53;4968332;28;20062;-64
2023/12/27 03:13:11;;;;;;;0.40;0.40;;;;;;;3.62;100.00;97199.78;4966623;28;20501;-64
2023/12/27 03:15:38;;;;;;;0.38;0.38;;;;;;;2.48;99.66;97011.53;4967862;28;20441;-64
2023/12/27 03:18:04;;;;;;;0.40;0.40;;;;;;;3.75;99.33;97219.94;4967791;28;20082;-65
2023/12/27 03:20:32;;;;;;;0.40;0.40;;;;;;;3.18;99.31;97193.81;4966135;28;20510;-64
2023/12/27 03:22:58;;;;;;;0.40;0.40;;;;;;;3.84;98.64;97245.41;4981454;28;20042;-65
2023/12/27 03:25:25;;;;;;;0.40;0.40;;;;;;;2.92;100.00;97185.53;4968069;28;20101;-63
2023/12/27 03:27:52;;;;;;;0.40;0.40;;;;;;;3.49;100.00;97243.75;4982500;28;20061;-64
2023/12/27 03:30:19;;;;;;;0.40;0.40;;;;;;;3.36;100.00;97220.88;4967677;28;20145;-65
2023/12/27 03:32:45;;;;;;;0.40;0.40;;;;;;;3.39;100.00;97212.03;4975064;28;20537;-64
2023/12/27 03:35:12;;;;;;;0.40;0.40;;;;;;;3.61;98.74;97252.97;4981208;28;20742;-64
2023/12/27 03:37:39;;;;;;;0.40;0.40;;;;;;;3.51;99.22;97242.31;4985634;28;20050;-64
2023/12/27 03:40:07;;;;;;;0.40;0.40;;;;;;;3.60;100.00;97239.59;4986679;28;20064;-64
2023/12/27 03:42:34;;;;;;;0.40;0.40;;;;;;;3.67;100.00;97228.94;4986789;28;20050;-65
2023/12/27 03:45:01;;;;;;;0.40;0.40;;;;;;;3.62;100.00;97215.44;5001786;28;20138;-63
2023/12/27 03:47:27;;;;;;;0.40;0.40;;;;;;;3.74;100.00;97210.94;5001530;28;20062;-64
2023/12/27 03:49:54;;;;;;;0.40;0.40;;;;;;;3.88;100.00;97213.50;4986786;28;20054;-64
2023/12/27 03:52:21;;;;;;;0.40;0.40;;;;;;;3.85;100.00;97231.38;4986121;28;20513;-64
2023/12/27 03:54:48;;;;;;;0.40;0.40;;;;;;;3.05;100.00;97168.19;4986392;28;20063;-64
2023/12/27 03:57:15;;;;;;;0.40;0.40;;;;;;;3.10;100.00;97165.28;4985060;28;20065;-63
2023/12/27 03:59:41;;;;;;;0.40;0.40;;;;;;;3.70;100.00;97245.56;4986379;28;20057;-64
2023/12/27 04:02:08;;;;;;;0.45;0.45;;;;;;;3.04;99.24;97139.19;4968570;28;20638;-64
2023/12/27 04:04:38;;;;;;;0.40;0.40;;;;;;;3.60;99.30;97221.22;4981795;28;20402;-64
2023/12/27 04:07:05;;;;;;;0.40;0.40;;;;;;;3.75;98.47;97228.16;4966855;28;20149;-63
2023/12/27 04:09:32;;;;;;;0.40;0.40;;;;;;;3.79;98.83;97227.22;4966924;28;20050;-63
2023/12/27 04:11:59;;;;;;;0.40;0.40;;;;;;;3.70;99.87;97245.56;4966921;28;20157;-64
2023/12/27 04:14:25;;;;;;;0.40;0.40;;;;;;;3.69;99.18;97254.09;4966916;28;20070;-64
2023/12/27 04:16:52;;;;;;;0.40;0.40;;;;;;;3.15;99.60;97188.97;4966635;28;20073;-63
2023/12/27 04:19:19;;;;;;;0.40;0.40;;;;;;;3.57;99.57;97262.97;4981540;28;20058;-64
2023/12/27 04:21:46;;;;;;;0.40;0.40;;;;;;;3.43;99.54;97251.31;4966133;28;20577;-63
2023/12/27 04:24:13;;;;;;;0.40;0.40;;;;;;;3.16;99.03;97213.28;4966646;28;20061;-64
2023/12/27 04:26:40;;;;;;;0.40;0.40;;;;;;;3.45;98.23;97265.50;4981176;28;20084;-65
2023/12/27 04:29:08;;;;;;;0.40;0.40;;;;;;;2.80;100.00;97286.50;4967081;28;20053;-63
2023/12/27 04:31:38;;;;;;;0.40;0.40;;;;;;;3.03;100.00;97279.88;4966272;28;20097;-63
2023/12/27 04:34:06;;;;;;;0.40;0.40;;;;;;;2.83;100.00;97221.06;4981060;28;20117;-64
2023/12/27 04:36:35;;;;;;;0.40;0.40;;;;;;;2.89;100.00;97252.59;4985501;28;20514;-65
2023/12/27 04:39:02;;;;;;;0.40;0.40;;;;;;;2.71;100.00;97277.47;4985737;28;20068;-63
2023/12/27 04:41:29;;;;;;;0.40;0.40;;;;;;;2.91;100.00;97315.22;5000152;28;20141;-64
2023/12/27 04:43:56;;;;;;;0.40;0.40;;;;;;;3.02;100.00;97292.72;4984294;28;20046;-63
2023/12/27 04:46:23;;;;;;;0.40;0.40;;;;;;;2.44;100.00;97255.75;4985643;28;20042;-62
2023/12/27 04:48:50;;;;;;;0.40;0.40;;;;;;;1.57;100.00;97176.28;4985481;28;20108;-64
2023/12/27 04:51:17;;;;;;;0.40;0.40;;;;;;;1.84;100.00;97191.72;4985120;28;20540;-63
2023/12/27 04:53:44;;;;;;;0.38;0.38;;;;;;;2.58;100.00;97295.56;4985880;28;20060;-63
2023/12/27 04:56:10;;;;;;;0.40;0.40;;;;;;;2.77;100.00;97309.03;4985142;28;20050;-64
2023/12/27 04:58:37;;;;;;;0.40;0.40;;;;;;;2.68;100.00;97289.03;4984290;28;20050;-63
2023/12/27 05:01:06;;;;;;;0.40;0.40;;;;;;;2.91;100.00;97296.06;4985713;28;20054;-63
2023/12/27 05:03:39;;;;;;;0.40;0.40;;;;;;;2.55;100.00;97232.50;4985551;28;20062;-63
2023/12/27 05:06:09;;;;;;;0.40;0.40;;;;;;;2.58;100.00;97234.59;4985251;28;20322;-63
2023/12/27 05:08:41;;;;;;;0.40;0.40;;;;;;;2.94;100.00;97268.09;4985204;28;20078;-65
2023/12/27 05:11:18;;;;;;;0.40;0.40;;;;;;;3.25;100.00;97315.38;4983831;28;20271;-63
2023/12/27 05:13:45;;;;;;;0.30;0.30;;;;;;;2.43;100.00;97322.50;4983842;28;20133;-63
2023/12/27 05:16:14;;;;;;;0.40;0.40;;;;;;;2.13;100.00;97317.78;4984636;28;20058;-64
2023/12/27 05:18:42;;;;;;;0.40;0.40;;;;;;;1.96;100.00;97358.59;4984891;28;20561;-64
2023/12/27 05:21:10;;;;;;;0.32;0.32;;;;;;;1.85;100.00;97302.59;4984552;28;20054;-63
2023/12/27 05:23:37;;;;;;;0.40;0.40;;;;;;;1.54;100.00;97248.69;4985090;28;20085;-63
2023/12/27 05:26:05;;;;;;;0.40;0.40;;;;;;;2.44;100.00;97349.53;4999433;28;20065;-63
2023/12/27 05:28:32;;;;;;;0.35;0.35;;;;;;;2.43;100.00;97371.69;4983461;28;20054;-64
2023/12/27 05:31:00;;;;;;;0.40;0.40;;;;;;;2.52;99.76;97378.03;4979367;28;20138;-63
2023/12/27 05:33:26;;;;;;;0.40;0.40;;;;;;;2.55;99.04;97366.47;4973488;28;20058;-63
2023/12/27 05:35:53;;;;;;;0.40;0.40;;;;;;;2.34;99.09;97338.81;4985049;28;20057;-64
2023/12/27 05:38:23;;;;;;;0.40;0.40;;;;;;;2.16;99.30;97308.94;4984644;28;20058;-63
2023/12/27 05:40:50;;;;;;;0.40;0.40;;;;;;;2.66;99.39;97373.31;4970648;28;20184;-64
2023/12/27 05:43:17;;;;;;;0.40;0.40;;;;;;;2.66;99.71;97378.78;4965296;28;20054;-64
2023/12/27 05:45:44;;;;;;;0.40;0.40;;;;;;;0.56;99.67;97036.00;4968027;28;20305;-63
2023/12/27 05:48:11;;;;;;;0.40;0.40;;;;;;;2.70;99.88;97385.25;4971461;28;20158;-62
2023/12/27 05:50:39;;;;;;;0.40;0.40;;;;;;;2.51;100.00;97403.75;4971841;28;20055;-62
2023/12/27 05:53:05;;;;;;;0.40;0.40;;;;;;;2.32;100.00;97401.22;4971591;28;20130;-62
2023/12/27 05:55:33;;;;;;;0.40;0.40;;;;;;;2.60;100.00;97401.91;4971369;28;20526;-63
2023/12/27 05:57:59;;;;;;;0.40;0.40;;;;;;;2.65;99.66;97399.03;4985352;28;20050;-63
2023/12/27 06:00:26;;;;;;;0.40;0.40;;;;;;;2.31;100.00;97366.00;4970308;28;20051;-63
2023/12/27 06:02:53;;;;;;;0.40;0.40;;;;;;;2.40;100.00;97370.38;4985088;28;20565;-63
2023/12/27 06:05:22;;;;;;;0.40;0.40;;;;;;;2.41;100.00;97311.06;4970675;28;20063;-63
2023/12/27 06:07:49;;;;;;;0.40;0.40;;;;;;;2.57;100.00;97334.16;4970319;28;20567;-63
2023/12/27 06:10:15;;;;;;;0.40;0.40;;;;;;;2.84;100.00;97369.56;4985264;28;20628;-63
2023/12/27 06:12:42;;;;;;;0.40;0.40;;;;;;;3.05;99.97;97381.63;4971500;28;20551;-63
2023/12/27 06:15:10;;;;;;;0.40;0.40;;;;;;;3.57;98.24;97427.28;4971782;28;20516;-64
2023/12/27 06:17:37;;;;;;;0.40;0.40;;;;;;;3.21;97.98;97341.75;4970115;28;20508;-64
2023/12/27 06:20:07;;;;;;;0.40;0.40;;;;;;;2.87;97.38;97276.75;4971960;28;20054;-63
2023/12/27 06:22:33;;;;;;;0.40;0.40;;;;;;;3.92;96.67;97423.50;4971568;28;20081;-63
2023/12/27 06:25:00;;;;;;;0.40;0.40;;;;;;;3.56;96.21;97364.56;4971625;28;20055;-63
2023/12/27 06:27:27;;;;;;;0.40;0.40;;;;;;;3.82;95.50;97377.25;4971126;28;20137;-64
2023/12/27 06:29:54;;;;;;;0.40;0.40;;;;;;;3.88;96.65;97375.16;4969875;28;20082;-64
2023/12/27 06:32:22;;;;;;;0.40;0.40;;;;;;;4.21;94.93;97434.72;4970830;28;20529;-62
2023/12/27 06:34:49;;;;;;;0.40;0.40;;;;;;;3.90;94.51;97458.66;5001812;28;20502;-64
2023/12/27 06:37:15;;;;;;;0.40;0.40;;;;;;;3.46;91.10;97360.22;4989491;28;20054;-62
2023/12/27 06:39:42;;;;;;;0.40;0.40;;;;;;;3.76;90.50;97452.47;4989655;28;20133;-63
2023/12/27 06:42:09;;;;;;;0.40;0.40;;;;;;;3.52;90.91;97375.38;4988738;28;20058;-63
2023/12/27 06:44:36;;;;;;;0.40;0.40;;;;;;;3.07;92.23;97321.88;4990859;28;20043;-64
2023/12/27 06:47:03;;;;;;;0.50;0.50;;;;;;;4.24;92.13;97458.75;4990889;28;20612;-63
2023/12/27 06:49:30;;;;;;;0.47;0.47;;;;;;;4.23;91.90;97421.50;4991063;28;20046;-63
2023/12/27 06:51:57;;;;;;;0.40;0.40;;;;;;;4.56;90.85;97466.53;4989300;28;20050;-64
2023/12/27 06:54:24;;;;;;;0.40;0.40;;;;;;;4.68;91.13;97469.44;4989601;28;20065;-65
2023/12/27 06:56:51;;;;;;;0.50;0.50;;;;;;;4.76;89.64;97464.31;4988632;28;20054;-65
2023/12/27 06:59:17;;;;;;;0.50;0.50;;;;;;;4.78;90.63;97440.06;4986171;28;20058;-63
2023/12/27 07:01:44;;;;;;;0.40;0.40;;;;;;;5.25;91.26;97499.47;4987280;28;20112;-64
2023/12/27 07:04:11;;;;;;;0.50;0.50;;;;;;;5.41;89.95;97525.28;4987709;28;20058;-65
2023/12/27 07:06:38;;;;;;;0.50;0.50;;;;;;;5.58;88.04;97511.53;4987268;28;20058;-64
2023/12/27 07:09:07;;;;;;;0.50;0.50;;;;;;;5.35;86.49;97450.50;4987536;28;20058;-64
2023/12/27 07:11:34;;;;;;;0.50;0.50;;;;;;;5.97;86.40;97516.78;4987044;28;20078;-64
2023/12/27 07:14:01;;;;;;;0.45;0.45;;;;;;;6.07;86.52;97494.41;4987427;28;20489;-64
2023/12/27 07:16:29;;;;;;;0.50;0.50;;;;;;;6.34;85.20;97513.22;4987149;28;20158;-62
2023/12/27 07:18:56;;;;;;;0.50;0.50;;;;;;;6.51;84.99;97513.16;4987084;28;20058;-64
2023/12/27 07:21:23;;;;;;;0.50;0.50;;;;;;;6.57;84.29;97470.53;4987099;28;20055;-64
2023/12/27 07:23:50;;;;;;;0.60;0.60;;;;;;;6.96;83.77;97510.56;4986844;28;20062;-64
2023/12/27 07:26:17;;;;;;;0.60;0.60;;;;;;;6.72;82.04;97456.16;4983396;28;20484;-62
2023/12/27 07:28:44;;;;;;;0.60;0.60;;;;;;;6.58;81.68;97384.06;4985275;28;20046;-64
2023/12/27 07:31:11;;;;;;;0.60;0.60;;;;;;;7.48;80.91;97518.06;4986562;28;20046;-67
2023/12/27 07:33:39;;;;;;;0.60;0.60;;;;;;;6.58;80.56;97395.06;4987472;28;20121;-66
2023/12/27 07:36:08;;;;;;;0.60;0.60;;;;;;;7.53;81.65;97514.28;4984625;28;20042;-63
2023/12/27 07:38:35;;;;;;;0.68;0.68;;;;;;;7.93;80.80;97522.78;4984938;28;20138;-68
2023/12/27 07:41:02;;;;;;;0.63;0.63;;;;;;;7.89;78.87;97495.06;4983206;28;20050;-69
2023/12/27 07:43:31;;;;;;;0.60;0.60;;;;;;;8.23;78.83;97527.00;4982130;28;20053;-71
2023/12/27 07:45:58;;;;;;;0.70;0.70;;;;;;;6.96;79.09;97274.53;4984982;28;20050;-75
2023/12/27 07:48:25;;;;;;;0.75;0.75;;;;;;;8.60;77.12;97520.38;4986235;28;20046;-66
2023/12/27 07:50:52;;;;;;;0.70;0.70;;;;;;;8.69;76.97;97540.38;4968656;28;20064;-67
2023/12/27 07:53:19;;;;;;;0.70;0.70;;;;;;;7.98;77.89;97426.03;4984835;28;20128;-70
2023/12/27 07:55:45;;;;;;;0.70;0.70;;;;;;;8.71;79.23;97521.50;4985215;28;20080;-64
2023/12/27 07:58:12;;;;;;;0.80;0.80;;;;;;;7.71;79.37;97350.28;4985214;28;20129;-63
2023/12/27 08:00:40;;;;;;;0.70;0.70;;;;;;;8.61;79.44;97477.78;4984457;28;20161;-65
2023/12/27 08:03:08;;;;;;;0.80;0.80;;;;;;;8.59;78.35;97463.50;4984133;28;20137;-69
2023/12/27 08:05:35;;;;;;;0.80;0.80;;;;;;;9.30;77.53;97536.34;4983557;28;20141;-70
2023/12/27 08:08:03;;;;;;;0.80;0.80;;;;;;;7.31;76.73;97204.09;4975038;28;20899;-77
2023/12/27 08:10:31;;;;;;;0.80;0.80;;;;;;;9.42;75.96;97528.00;4977043;28;20062;-74
2023/12/27 08:12:59;;;;;;;0.80;0.80;;;;;;;9.89;74.98;97564.94;4984628;28;20050;-73
2023/12/27 08:15:26;;;;;;;0.80;0.80;;;;;;;9.82;75.03;97561.97;4991390;28;20050;-66
2023/12/27 08:17:54;;;;;;;0.80;0.80;;;;;;;10.05;74.54;97554.69;4983890;28;20058;-66
2023/12/27 08:20:22;;;;;;;0.80;0.80;;;;;;;10.17;72.84;97551.09;4983330;28;20432;-70
2023/12/27 08:22:51;;;;;;;0.80;0.80;;;;;;;10.67;72.02;97571.41;4983192;28;20058;-68
2023/12/27 08:25:18;;;;;;;0.80;0.80;;;;;;;10.72;70.93;97541.81;4992468;28;20046;-64
2023/12/27 08:27:45;;;;;;;0.80;0.80;;;;;;;11.05;69.30;97567.19;4997512;28;20050;-67
2023/12/27 08:30:13;;;;;;;0.95;0.95;;;;;;;10.15;68.82;97393.66;4983742;28;20056;-71
2023/12/27 08:32:40;;;;;;;0.90;0.90;;;;;;;11.33;67.65;97553.94;4998708;28;20421;-75
2023/12/27 08:35:07;;;;;;;1.00;1.00;;;;;;;11.54;68.22;97554.41;4998863;28;20050;-67
2023/12/27 08:37:34;;;;;;;0.90;0.90;;;;;;;10.85;68.14;97408.34;4998317;28;20050;-68
2023/12/27 08:40:01;;;;;;;1.10;1.10;;;;;;;12.05;66.34;97569.75;4983609;28;20058;-67
2023/12/27 08:42:28;;;;;;;1.00;1.00;;;;;;;12.15;65.31;97569.19;4268021;28;10000329;-63
2023/12/27 08:44:54;;;;;;;0.90;0.90;;;;;;;11.97;65.02;97579.13;4985733;28;20046;-72
2023/12/27 08:47:22;;;;;;;1.00;1.00;;;;;;;12.28;65.49;97567.84;4983039;28;20070;-69
2023/12/27 08:49:50;;;;;;;1.02;1.02;;;;;;;11.88;63.27;97453.63;4999420;28;20129;-77
2023/12/27 08:52:17;;;;;;;1.10;1.10;;;;;;;12.75;63.32;97559.94;4988285;28;20046;-79
2023/12/27 08:54:44;;;;;;;1.00;1.00;;;;;;;12.76;62.40;97530.97;4983339;28;20058;-76
2023/12/27 08:57:11;;;;;;;1.20;1.20;;;;;;;12.85;61.19;97484.22;4984063;28;20050;-78
2023/12/27 08:59:38;;;;;;;1.00;1.00;;;;;;;13.51;60.87;97545.63;5016014;28;20046;-66
2023/12/27 09:02:05;;;;;;;1.00;1.00;;;;;;;13.18;59.75;97464.09;4983489;28;20138;-67
2023/12/27 09:04:32;;;;;;;1.08;1.08;;;;;;;13.04;58.86;97456.34;4999072;28;20137;-66
2023/12/27 09:06:59;;;;;;;1.10;1.10;;;;;;;13.75;59.25;97547.16;5014784;28;20070;-76
2023/12/27 09:09:26;;;;;;;1.33;1.33;;;;;;;13.88;58.53;97544.94;4984301;28;20061;-77
2023/12/27 09:11:53;;;;;;;1.20;1.20;;;;;;;14.03;57.81;97546.69;4984237;28;20061;-66
2023/12/27 09:14:19;;;;;;;1.13;1.13;;;;;;;14.17;57.36;97541.28;4983799;28;20057;-75
2023/12/27 09:16:46;;;;;;;1.25;1.25;;;;;;;14.33;56.89;97539.91;4983826;28;20098;-78
2023/12/27 09:19:13;;;;;;;1.30;1.30;;;;;;;14.48;56.96;97535.28;4983821;28;20760;-61
2023/12/27 09:21:45;;;;;;;1.13;1.13;;;;;;;14.31;56.61;97496.84;4983105;28;20062;-72
2023/12/27 09:24:12;;;;;;;1.30;1.30;;;;;;;14.73;56.46;97558.59;4983428;28;20501;-65
2023/12/27 09:26:39;;;;;;;1.40;1.40;;;;;;;14.81;56.74;97549.91;4983216;28;20340;-67
2023/12/27 09:29:09;;;;;;;1.38;1.38;;;;;;;14.88;56.17;97543.56;4979786;28;20129;-63
2023/12/27 09:31:36;;;;;;;1.38;1.38;;;;;;;14.45;56.54;97430.91;4982566;28;20086;-68
2023/12/27 09:34:03;;;;;;;1.35;1.35;;;;;;;15.33;56.28;97548.72;4983351;28;20128;-64
2023/12/27 09:36:31;;;;;;;1.50;1.50;;;;;;;15.54;55.76;97532.09;4983560;28;20425;-65
2023/12/27 09:38:58;;;;;;;1.40;1.40;;;;;;;15.60;54.85;97524.94;4983862;28;20054;-69
2023/12/27 09:41:26;;;;;;;1.58;1.58;;;;;;;15.16;53.83;97449.72;4981787;28;20504;-68
2023/12/27 09:43:56;;;;;;;1.30;1.30;;;;;;;15.55;52.99;97505.78;4983575;28;20513;-68
2023/12/27 09:46:26;;;;;;;1.60;1.60;;;;;;;15.83;52.72;97494.75;4802860;28;5001419;-67
2023/12/27 09:48:53;;;;;;;1.30;1.30;;;;;;;15.79;50.83;97471.56;4983701;28;20062;-64
2023/12/27 09:51:25;;;;;;;1.40;1.40;;;;;;;14.88;48.68;97368.66;4998331;28;20355;-68
2023/12/27 09:53:52;;;;;;;1.40;1.40;;;;;;;16.00;48.80;97527.53;4983911;28;20062;-67
2023/12/27 09:56:22;;;;;;;1.48;1.48;;;;;;;15.94;48.29;97445.28;4983466;28;20611;-66
2023/12/27 09:58:52;;;;;;;1.35;1.35;;;;;;;16.36;47.92;97517.25;4983828;28;20050;-68
2023/12/27 10:01:24;;;;;;;1.60;1.60;;;;;;;16.10;47.08;97498.81;4983646;28;20167;-65
2023/12/27 10:04:03;;;;;;;1.70;1.70;;;;;;;15.49;46.95;97378.91;4973296;28;20054;-65
2023/12/27 10:06:39;;;;;;;1.60;1.60;;;;;;;16.42;46.52;97484.91;4969452;28;20058;-67
2023/12/27 10:09:06;;;;;;;1.40;1.40;;;;;;;16.37;46.05;97486.09;4983159;28;20145;-71
2023/12/27 10:11:34;;;;;;;1.60;1.60;;;;;;;16.25;45.85;97418.56;4983337;28;20137;-65
2023/12/27 10:14:04;;;;;;;1.52;1.52;;;;;;;16.35;46.15;97393.41;4983709;28;20046;-69
2023/12/27 10:16:31;;;;;;;1.70;1.70;;;;;;;16.51;45.13;97401.44;5013579;28;20136;-69
2023/12/27 10:19:00;;;;;;;1.90;1.90;;;;;;;16.88;45.29;97417.78;4998445;28;20060;-66
2023/12/27 10:21:27;;;;;;;1.90;1.90;;;;;;;16.82;44.62;97371.84;4983089;28;20060;-65
2023/12/27 10:23:53;;;;;;;1.58;1.58;;;;;;;16.40;43.91;97317.53;4983461;28;20129;-65
2023/12/27 10:26:20;;;;;;;1.90;1.90;;;;;;;16.39;43.91;97341.09;4983473;28;20052;-65
2023/12/27 10:28:47;;;;;;;1.88;1.88;;;;;;;17.34;43.96;97424.06;4983614;28;20047;-68
2023/12/27 10:31:14;;;;;;;1.83;1.83;;;;;;;17.51;43.29;97403.63;4983284;28;20047;-68
2023/12/27 10:33:44;;;;;;;1.75;1.75;;;;;;;17.90;43.18;97446.25;4986260;28;20108;-65
2023/12/27 10:36:12;;;;;;;1.90;1.90;;;;;;;18.12;42.11;97461.75;4984110;28;20752;-69
2023/12/27 10:38:40;;;;;;;1.80;1.80;;;;;;;18.17;43.13;97447.31;4967728;28;20050;-67
2023/12/27 10:41:06;;;;;;;1.80;1.80;;;;;;;18.38;42.29;97450.03;4967789;28;20403;-69
2023/12/27 10:43:33;;;;;;;1.95;1.95;;;;;;;18.09;41.99;97396.09;4967731;28;20058;-69
2023/12/27 10:46:07;;;;;;;2.10;2.10;;;;;;;18.65;41.10;97451.00;4967084;28;20109;-67
2023/12/27 10:48:38;;;;;;;2.10;2.10;;;;;;;18.63;41.27;97411.34;4967355;28;20580;-68
2023/12/27 10:51:09;;;;;;;1.77;1.77;;;;;;;18.67;40.91;97398.06;4966945;28;20079;-68
2023/12/27 10:53:36;;;;;;;1.95;1.95;;;;;;;18.96;40.78;97438.69;4967249;28;20059;-67
2023/12/27 10:56:04;;;;;;;1.90;1.90;;;;;;;18.62;40.31;97350.00;4966959;28;20170;-67
2023/12/27 10:58:31;;;;;;;2.05;2.05;;;;;;;18.96;39.89;97416.25;4967422;28;20062;-67
2023/12/27 11:00:59;;;;;;;2.00;2.00;;;;;;;19.34;38.06;97434.72;4966938;28;20050;-66
2023/12/27 11:03:29;;;;;;;1.77;1.77;;;;;;;18.99;38.30;97392.94;4966943;28;20057;-67
2023/12/27 11:05:59;;;;;;;1.80;1.80;;;;;;;18.31;38.39;97295.75;4966879;28;20051;-70
2023/12/27 11:08:27;;;;;;;1.80;1.80;;;;;;;18.07;39.84;97426.53;4981149;28;20695;-68
2023/12/27 11:10:55;;;;;;;1.90;1.90;;;;;;;18.47;39.52;97425.09;4966722;28;20047;-69
2023/12/27 11:13:25;;;;;;;1.83;1.83;;;;;;;18.14;40.22;97425.69;4985752;28;20054;-67
2023/12/27 11:15:53;;;;;;;1.73;1.73;;;;;;;18.30;39.69;97422.38;5000830;28;20050;-66
2023/12/27 11:18:23;;;;;;;2.00;2.00;;;;;;;18.24;40.27;97424.81;4985332;28;20494;-66
2023/12/27 11:20:52;;;;;;;2.00;2.00;;;;;;;17.65;39.82;97308.28;4986140;28;20116;-65
2023/12/27 11:23:20;;;;;;;1.60;1.60;;;;;;;17.80;39.67;97388.25;4985652;28;20058;-68
2023/12/27 11:25:47;;;;;;;1.90;1.90;;;;;;;18.08;39.75;97428.13;4986187;28;20518;-68
2023/12/27 11:28:14;;;;;;;1.70;1.70;;;;;;;17.87;39.37;97433.06;4986107;28;20054;-68
2023/12/27 11:30:42;;;;;;;1.50;1.50;;;;;;;17.62;39.51;97377.16;4985807;28;20077;-66
2023/12/27 11:33:10;;;;;;;2.00;2.00;;;;;;;17.08;39.80;97362.94;4985773;28;20134;-67
2023/12/27 11:35:37;;;;;;;1.70;1.70;;;;;;;16.88;40.39;97309.47;4985914;28;20073;-65
2023/12/27 11:38:22;;;;;;;1.90;1.90;;;;;;;17.90;39.83;97427.44;4967897;28;20134;-65